EIWF

Waterford Airport

Waterford, Ireland
METAR EIWF 201230Z 25013KT 220V280 9999 FEW008 SCT012 15/13 Q1030
Observed Flight Rules
Oct-20 @ 12:30 UTC (22 minutes ago) Visual Flight Rules
Wind Visibility Clouds
250° at 13 knots 10,000+ meters
  • Few at 800' AGL
  • Scattered at 1,200' AGL
Temperatures Readings
Current 15°C / 59°F
Dewpoint 13°C / 55°F
Humidity 88%
Altimeter 30.41" Hg
Pressure 1030 hPa
Elevation 36
METAR EIWF 201230Z 25013KT 220V280 9999 FEW008 SCT012 15/13 Q1030
Observed Flight Rules
Oct-20 @ 12:30 UTC
(22 minutes ago)
VFR
Wind Visibility
250° at 13 knots 10,000+ meters
Clouds
  • Few at 800' AGL
  • Scattered at 1,200' AGL
Temperature Dewpoint
15°C / 59°F 13°C / 55°F
Humidity Altimeter Pressure
88% 30.41" Hg 1030 hPa